Time;durP1;ratioP1;P1;durP2;ratioP2;P2;SDS_P1;SDS_P2;PMS_P1;PMS_P2;Temp;Humidity;BMP_temperature;BMP_pressure;BME280_temperature;BME280_humidity;BME280_pressure;Samples;Min_cycle;Max_cycle;Signal;HPM_P1;HPM_P2
2024/01/25 00:02:24;;;;;;;;;;;11.20;99.90;;;;;;5069561;28;19915;-73
2024/01/25 00:04:50;;;;;;;;;;;11.10;99.90;;;;;;5069249;28;19908;-73
2024/01/25 00:07:15;;;;;;;;;;;11.10;99.90;;;;;;5067670;28;19920;-73
2024/01/25 00:09:41;;;;;;;;;;;11.10;99.90;;;;;;5070889;28;19916;-73
2024/01/25 00:12:07;;;;;;;;;;;11.10;99.90;;;;;;5073429;28;19908;-73
2024/01/25 00:14:33;;;;;;;;;;;11.10;99.90;;;;;;5071472;28;19951;-73
2024/01/25 00:16:59;;;;;;;;;;;11.10;99.90;;;;;;5073144;28;19908;-73
2024/01/25 00:19:24;;;;;;;;;;;11.20;99.90;;;;;;5071351;28;19912;-73
2024/01/25 00:21:50;;;;;;;;;;;11.30;99.90;;;;;;5073108;28;20402;-73
2024/01/25 00:24:17;;;;;;;;;;;11.50;99.90;;;;;;5072910;28;19909;-73
2024/01/25 00:26:43;;;;;;;;;;;11.60;99.90;;;;;;5088660;28;19916;-72
2024/01/25 00:29:10;;;;;;;;;;;11.70;99.90;;;;;;5093120;28;20094;-73
2024/01/25 00:31:42;;;;;;;;;;;11.70;99.90;;;;;;5093342;28;19916;-73
2024/01/25 00:34:07;;;;;;;;;;;11.70;99.90;;;;;;5095190;28;19923;-73
2024/01/25 00:36:33;;;;;;;;;;;11.70;99.90;;;;;;5093794;28;19909;-72
2024/01/25 00:38:59;;;;;;;;;;;11.70;99.90;;;;;;5093175;28;19908;-73
2024/01/25 00:41:25;;;;;;;;;;;11.70;99.90;;;;;;5093055;28;19951;-74
2024/01/25 00:43:51;;;;;;;;;;;11.70;99.90;;;;;;5092787;28;19992;-73
2024/01/25 00:46:17;;;;;;;;;;;11.70;99.90;;;;;;5092572;28;20280;-73
2024/01/25 00:48:43;;;;;;;;;;;11.70;99.90;;;;;;5092725;28;20002;-73
2024/01/25 00:51:14;;;;;;;;;;;11.60;99.90;;;;;;5092314;28;20007;-73
2024/01/25 00:53:40;;;;;;;;;;;11.70;99.90;;;;;;5092576;28;20353;-73
2024/01/25 00:56:06;;;;;;;;;;;11.70;99.90;;;;;;5092603;28;19970;-73
2024/01/25 00:58:33;;;;;;;;;;;11.70;99.90;;;;;;5092695;28;20010;-73
2024/01/25 01:00:59;;;;;;;;;;;11.70;99.90;;;;;;5092699;28;19948;-73
2024/01/25 01:03:25;;;;;;;;;;;11.70;99.90;;;;;;5090777;28;20016;-72
2024/01/25 01:05:51;;;;;;;;;;;11.60;99.90;;;;;;5092138;28;20066;-73
2024/01/25 01:08:17;;;;;;;;;;;11.70;99.90;;;;;;5092526;28;20005;-74
2024/01/25 01:10:43;;;;;;;;;;;11.60;99.90;;;;;;5092726;28;19924;-71
2024/01/25 01:13:08;;;;;;;;;;;11.70;99.90;;;;;;5092227;28;20202;-73
2024/01/25 01:15:34;;;;;;;;;;;11.60;99.90;;;;;;5090672;28;19912;-73
2024/01/25 01:18:00;;;;;;;;;;;11.60;99.90;;;;;;5092444;28;19909;-73
2024/01/25 01:20:26;;;;;;;;;;;11.50;99.90;;;;;;5091637;28;19944;-73
2024/01/25 01:22:55;;;;;;;;;;;11.50;99.90;;;;;;5092124;28;20241;-74
2024/01/25 01:25:20;;;;;;;;;;;11.50;99.90;;;;;;5091302;28;19950;-73
2024/01/25 01:27:46;;;;;;;;;;;11.50;99.90;;;;;;5091417;28;19955;-71
2024/01/25 01:30:12;;;;;;;;;;;11.40;99.90;;;;;;5092108;28;20023;-72
2024/01/25 01:32:39;;;;;;;;;;;11.40;99.90;;;;;;5092163;28;19908;-73
2024/01/25 01:35:05;;;;;;;;;;;11.40;99.90;;;;;;5091678;28;19908;-73
2024/01/25 01:37:31;;;;;;;;;;;11.40;99.90;;;;;;5091707;28;19970;-74
2024/01/25 01:39:58;;;;;;;;;;;11.40;99.90;;;;;;5091820;28;19953;-72
2024/01/25 01:42:24;;;;;;;;;;;11.40;99.90;;;;;;5091774;28;19908;-73
2024/01/25 01:44:51;;;;;;;;;;;11.50;99.90;;;;;;5085926;28;19909;-73
2024/01/25 01:47:17;;;;;;;;;;;11.50;99.90;;;;;;5071714;28;19962;-72
2024/01/25 01:49:43;;;;;;;;;;;11.50;99.90;;;;;;5071810;28;20014;-74
2024/01/25 01:52:09;;;;;;;;;;;11.60;99.90;;;;;;5071264;28;19915;-73
2024/01/25 01:54:36;;;;;;;;;;;11.70;99.90;;;;;;5071214;28;19916;-75
2024/01/25 01:57:02;;;;;;;;;;;11.70;99.90;;;;;;5072282;28;20331;-75
2024/01/25 01:59:29;;;;;;;;;;;11.80;99.90;;;;;;5070957;28;20014;-74
2024/01/25 02:01:55;;;;;;;;;;;11.80;99.90;;;;;;5071039;28;19950;-74
2024/01/25 02:04:20;;;;;;;;;;;11.80;99.90;;;;;;5070656;28;19939;-73
2024/01/25 02:06:46;;;;;;;;;;;11.80;99.90;;;;;;5072036;28;19920;-74
2024/01/25 02:09:13;;;;;;;;;;;11.70;99.90;;;;;;5070828;28;20364;-73
2024/01/25 02:11:39;;;;;;;;;;;11.70;99.90;;;;;;5072580;28;19970;-74
2024/01/25 02:14:06;;;;;;;;;;;11.80;99.90;;;;;;5073394;28;19912;-74
2024/01/25 02:16:32;;;;;;;;;;;11.70;99.90;;;;;;5070423;28;20039;-74
2024/01/25 02:19:00;;;;;;;;;;;11.70;99.90;;;;;;5071879;28;19915;-74
2024/01/25 02:21:26;;;;;;;;;;;11.70;99.90;;;;;;5070948;28;19908;-74
2024/01/25 02:23:52;;;;;;;;;;;11.60;99.90;;;;;;5070920;28;19923;-73
2024/01/25 02:26:18;;;;;;;;;;;11.60;99.90;;;;;;5070714;28;19908;-74
2024/01/25 02:28:45;;;;;;;;;;;11.70;99.90;;;;;;5070670;28;19920;-73
2024/01/25 02:31:11;;;;;;;;;;;11.60;99.90;;;;;;5069813;28;19970;-74
2024/01/25 02:33:36;;;;;;;;;;;11.70;99.90;;;;;;5070479;28;20005;-74
2024/01/25 02:36:02;;;;;;;;;;;11.70;99.90;;;;;;5070405;28;20004;-73
2024/01/25 02:38:28;;;;;;;;;;;11.70;99.90;;;;;;5070468;28;19915;-73
2024/01/25 02:40:55;;;;;;;;;;;11.70;99.90;;;;;;5070819;28;20353;-73
2024/01/25 02:43:21;;;;;;;;;;;11.70;99.90;;;;;;5070451;28;19909;-72
2024/01/25 02:45:48;;;;;;;;;;;11.70;99.90;;;;;;5070446;28;19916;-73
2024/01/25 02:48:15;;;;;;;;;;;11.80;99.90;;;;;;5070510;28;19940;-73
2024/01/25 02:50:41;;;;;;;;;;;11.80;99.90;;;;;;5070265;28;19970;-73
2024/01/25 02:53:08;;;;;;;;;;;11.80;99.90;;;;;;5070197;28;20012;-73
2024/01/25 02:55:34;;;;;;;;;;;11.80;99.90;;;;;;5070130;28;19916;-74
2024/01/25 02:58:00;;;;;;;;;;;11.80;99.90;;;;;;5070328;28;19915;-73
2024/01/25 03:00:26;;;;;;;;;;;11.90;99.90;;;;;;5070286;28;19995;-73
2024/01/25 03:02:51;;;;;;;;;;;12.00;99.90;;;;;;5070128;28;19923;-74
2024/01/25 03:05:17;;;;;;;;;;;12.00;99.90;;;;;;5079777;28;19942;-74
2024/01/25 03:07:45;;;;;;;;;;;12.00;99.90;;;;;;5088286;28;19988;-71
2024/01/25 03:10:11;;;;;;;;;;;12.10;99.90;;;;;;5089987;28;19920;-75
2024/01/25 03:12:37;;;;;;;;;;;12.10;99.90;;;;;;5090288;28;19945;-74
2024/01/25 03:15:03;;;;;;;;;;;12.10;99.90;;;;;;5088270;28;19931;-75
2024/01/25 03:17:29;;;;;;;;;;;12.20;99.90;;;;;;5090448;28;20007;-72
2024/01/25 03:19:55;;;;;;;;;;;12.20;99.90;;;;;;5090308;28;19942;-74
2024/01/25 03:22:22;;;;;;;;;;;12.20;99.90;;;;;;5088708;28;19908;-69
2024/01/25 03:24:48;;;;;;;;;;;12.30;99.90;;;;;;5089461;28;19966;-74
2024/01/25 03:27:14;;;;;;;;;;;12.20;99.90;;;;;;5089050;28;19912;-72
2024/01/25 03:29:43;;;;;;;;;;;12.20;99.90;;;;;;5084366;28;19928;-69
2024/01/25 03:32:12;;;;;;;;;;;12.20;99.90;;;;;;5087313;28;20378;-74
2024/01/25 03:34:38;;;;;;;;;;;12.30;99.90;;;;;;5087523;28;19916;-77
2024/01/25 03:37:04;;;;;;;;;;;12.40;99.90;;;;;;5089396;28;19913;-71
2024/01/25 03:39:36;;;;;;;;;;;12.40;99.90;;;;;;5091613;28;19908;-74
2024/01/25 03:42:03;;;;;;;;;;;12.50;99.90;;;;;;5089254;28;19938;-69
2024/01/25 03:44:29;;;;;;;;;;;12.50;99.90;;;;;;5090788;28;19951;-74
2024/01/25 03:46:55;;;;;;;;;;;12.60;99.90;;;;;;5075063;28;19916;-70
2024/01/25 03:49:22;;;;;;;;;;;12.70;99.90;;;;;;5091956;28;20242;-70
2024/01/25 03:51:49;;;;;;;;;;;12.70;99.90;;;;;;5093368;28;19922;-74
2024/01/25 03:54:14;;;;;;;;;;;12.70;99.90;;;;;;5093302;28;19968;-73
2024/01/25 03:56:40;;;;;;;;;;;12.70;99.90;;;;;;5093961;28;20017;-74
2024/01/25 03:59:10;;;;;;;;;;;12.80;99.90;;;;;;5094220;28;20313;-74
2024/01/25 04:01:41;;;;;;;;;;;12.80;99.90;;;;;;5094318;28;19908;-74
2024/01/25 04:04:09;;;;;;;;;;;12.90;99.90;;;;;;5094883;28;19908;-74
2024/01/25 04:06:34;;;;;;;;;;;12.90;99.90;;;;;;5094525;28;20015;-74
2024/01/25 04:09:00;;;;;;;;;;;13.00;99.90;;;;;;5094316;28;19915;-75
2024/01/25 04:11:26;;;;;;;;;;;13.00;99.90;;;;;;5094333;28;19956;-74
2024/01/25 04:13:52;;;;;;;;;;;13.00;99.90;;;;;;5094650;28;19915;-75
2024/01/25 04:16:18;;;;;;;;;;;13.00;99.90;;;;;;5094812;28;19953;-74
2024/01/25 04:18:43;;;;;;;;;;;13.00;99.90;;;;;;5094666;28;19908;-73
2024/01/25 04:21:09;;;;;;;;;;;13.00;99.90;;;;;;5078911;28;20343;-73
2024/01/25 04:23:35;;;;;;;;;;;13.00;99.90;;;;;;5073464;28;19909;-74
2024/01/25 04:26:01;;;;;;;;;;;13.00;99.90;;;;;;5075228;28;19954;-74
2024/01/25 04:28:27;;;;;;;;;;;13.00;99.90;;;;;;5073718;28;19908;-74
2024/01/25 04:30:52;;;;;;;;;;;13.00;99.90;;;;;;5075155;28;19921;-74
2024/01/25 04:33:18;;;;;;;;;;;13.00;99.90;;;;;;5075061;28;19908;-74
2024/01/25 04:35:45;;;;;;;;;;;12.90;99.90;;;;;;5074833;28;19909;-74
2024/01/25 04:38:11;;;;;;;;;;;12.90;99.90;;;;;;5074855;28;19970;-75
2024/01/25 04:40:37;;;;;;;;;;;12.90;99.90;;;;;;5074932;28;19955;-74
2024/01/25 04:43:03;;;;;;;;;;;12.90;99.90;;;;;;5074910;28;19959;-73
2024/01/25 04:45:29;;;;;;;;;;;12.80;99.90;;;;;;5074815;28;19909;-73
2024/01/25 04:47:55;;;;;;;;;;;12.70;99.90;;;;;;5074625;28;20357;-73
2024/01/25 04:50:21;;;;;;;;;;;12.70;99.90;;;;;;5074465;28;19920;-74
2024/01/25 04:52:47;;;;;;;;;;;12.60;99.90;;;;;;5084426;28;19916;-74
2024/01/25 04:55:12;;;;;;;;;;;12.60;99.90;;;;;;5094427;28;19912;-74
2024/01/25 04:57:38;;;;;;;;;;;12.50;99.90;;;;;;5093558;28;20019;-74
2024/01/25 05:00:04;;;;;;;;;;;12.50;99.90;;;;;;5093848;28;19919;-74
2024/01/25 05:02:30;;;;;;;;;;;12.50;99.90;;;;;;5093907;28;20011;-73
2024/01/25 05:04:56;;;;;;;;;;;12.50;99.90;;;;;;5091280;28;19916;-70
2024/01/25 05:07:22;;;;;;;;;;;12.50;99.90;;;;;;5084621;28;19973;-68
2024/01/25 05:09:48;;;;;;;;;;;12.50;99.90;;;;;;5084994;28;19946;-73
2024/01/25 05:12:14;;;;;;;;;;;12.50;99.90;;;;;;5087109;28;19912;-74
2024/01/25 05:14:39;;;;;;;;;;;12.50;99.90;;;;;;5094714;28;19965;-73
2024/01/25 05:17:08;;;;;;;;;;;12.50;99.90;;;;;;5095727;28;20372;-73
2024/01/25 05:19:33;;;;;;;;;;;12.50;99.90;;;;;;5093105;28;19959;-74
2024/01/25 05:22:00;;;;;;;;;;;12.50;99.90;;;;;;5075137;28;20372;-73
2024/01/25 05:24:26;;;;;;;;;;;12.40;99.90;;;;;;5075105;28;19908;-74
2024/01/25 05:26:53;;;;;;;;;;;12.40;99.90;;;;;;5075180;28;19931;-73
2024/01/25 05:29:19;;;;;;;;;;;12.40;99.90;;;;;;5073698;28;19909;-73
2024/01/25 05:31:45;;;;;;;;;;;12.40;99.90;;;;;;5074975;28;20447;-74
2024/01/25 05:34:11;;;;;;;;;;;12.40;99.90;;;;;;5074709;28;19908;-73
2024/01/25 05:36:37;;;;;;;;;;;12.40;99.90;;;;;;5074811;28;20371;-73
2024/01/25 05:39:06;;;;;;;;;;;12.40;99.90;;;;;;5074913;28;19920;-73
2024/01/25 05:41:32;;;;;;;;;;;12.40;99.90;;;;;;5074873;28;19908;-73
2024/01/25 05:43:58;;;;;;;;;;;12.40;99.90;;;;;;5094907;28;20280;-73
2024/01/25 05:46:23;;;;;;;;;;;12.40;99.90;;;;;;5095031;28;20380;-76
2024/01/25 05:48:49;;;;;;;;;;;12.50;99.90;;;;;;5095067;28;20037;-76
2024/01/25 05:51:15;;;;;;;;;;;12.50;99.90;;;;;;5076918;28;19922;-76
2024/01/25 05:53:41;;;;;;;;;;;12.50;99.90;;;;;;5074514;28;19908;-76
2024/01/25 05:56:07;;;;;;;;;;;12.50;99.90;;;;;;5073160;28;20331;-76
2024/01/25 05:58:35;;;;;;;;;;;12.50;99.90;;;;;;5074531;28;20245;-76
2024/01/25 06:01:02;;;;;;;;;;;12.60;99.90;;;;;;5074070;28;19935;-76
2024/01/25 06:03:28;;;;;;;;;;;12.60;99.90;;;;;;5073980;28;19908;-74
2024/01/25 06:05:53;;;;;;;;;;;12.60;99.90;;;;;;5073821;28;20260;-76
2024/01/25 06:08:19;;;;;;;;;;;12.60;99.90;;;;;;5074381;28;19908;-76
2024/01/25 06:10:45;;;;;;;;;;;12.60;99.90;;;;;;5074100;28;19978;-76
2024/01/25 06:13:11;;;;;;;;;;;12.60;99.90;;;;;;5074225;28;19916;-74
2024/01/25 06:15:38;;;;;;;;;;;12.60;99.90;;;;;;5073637;28;19915;-76
2024/01/25 06:18:05;;;;;;;;;;;12.70;99.90;;;;;;5073887;28;19964;-77
2024/01/25 06:20:31;;;;;;;;;;;12.70;99.90;;;;;;5085933;28;19912;-73
2024/01/25 06:22:57;;;;;;;;;;;12.70;99.90;;;;;;5093584;28;19918;-77
2024/01/25 06:25:23;;;;;;;;;;;12.70;99.90;;;;;;5093832;28;19912;-76
2024/01/25 06:27:49;;;;;;;;;;;12.70;99.90;;;;;;5094356;28;20324;-76
2024/01/25 06:30:15;;;;;;;;;;;12.70;99.90;;;;;;5091938;28;19926;-77
2024/01/25 06:32:42;;;;;;;;;;;12.70;99.90;;;;;;5093196;28;20311;-78
2024/01/25 06:35:08;;;;;;;;;;;12.80;99.90;;;;;;5092929;28;19928;-78
2024/01/25 06:37:33;;;;;;;;;;;12.80;99.90;;;;;;5093392;28;19931;-77
2024/01/25 06:39:59;;;;;;;;;;;12.90;99.90;;;;;;5092837;28;20109;-76
2024/01/25 06:42:26;;;;;;;;;;;13.20;99.90;;;;;;5093512;28;19908;-78
2024/01/25 06:44:52;;;;;;;;;;;13.60;99.90;;;;;;5104544;28;19908;-77
2024/01/25 06:47:18;;;;;;;;;;;14.10;99.90;;;;;;5094915;28;19931;-77
2024/01/25 06:49:47;;;;;;;;;;;14.50;99.90;;;;;;5092816;28;19912;-78
2024/01/25 06:52:13;;;;;;;;;;;14.90;99.90;;;;;;5092848;28;19912;-76
2024/01/25 06:54:40;;;;;;;;;;;15.40;99.90;;;;;;5092539;28;19915;-77
2024/01/25 06:57:07;;;;;;;;;;;15.80;99.90;;;;;;5092518;28;19915;-78
2024/01/25 06:59:33;;;;;;;;;;;16.30;99.90;;;;;;5092338;28;19998;-72
2024/01/25 07:02:02;;;;;;;;;;;16.60;99.90;;;;;;5092392;28;19970;-82
2024/01/25 07:04:30;;;;;;;;;;;16.80;99.90;;;;;;5092935;28;20363;-80
2024/01/25 07:06:56;;;;;;;;;;;17.40;99.90;;;;;;5093689;28;19967;-82
2024/01/25 07:09:22;;;;;;;;;;;17.80;99.90;;;;;;5095364;28;19940;-81
2024/01/25 07:11:48;;;;;;;;;;;18.10;99.90;;;;;;5092258;28;20403;-85
2024/01/25 07:14:14;;;;;;;;;;;18.30;99.90;;;;;;5093215;28;19991;-80
2024/01/25 07:16:40;;;;;;;;;;;18.20;99.90;;;;;;5092212;28;19908;-82
2024/01/25 07:19:06;;;;;;;;;;;18.40;99.90;;;;;;5091395;28;19956;-80
2024/01/25 07:21:32;;;;;;;;;;;18.70;99.90;;;;;;5092100;28;20034;-79
2024/01/25 07:24:03;;;;;;;;;;;18.90;99.90;;;;;;5091778;28;19999;-79
2024/01/25 07:26:30;;;;;;;;;;;19.10;99.90;;;;;;5092422;28;20034;-77
2024/01/25 07:28:58;;;;;;;;;;;19.50;99.90;;;;;;5091944;28;20360;-79
2024/01/25 07:31:26;;;;;;;;;;;20.00;99.90;;;;;;5092629;28;19920;-77
2024/01/25 07:33:52;;;;;;;;;;;20.10;99.90;;;;;;5092236;28;19915;-79
2024/01/25 07:36:18;;;;;;;;;;;20.40;99.90;;;;;;5092629;28;20015;-76
2024/01/25 07:38:46;;;;;;;;;;;20.60;99.90;;;;;;5092049;28;19913;-78
2024/01/25 07:41:12;;;;;;;;;;;20.70;99.90;;;;;;5093038;28;19912;-79
2024/01/25 07:43:39;;;;;;;;;;;21.20;99.90;;;;;;5092311;28;19912;-78
2024/01/25 07:46:05;;;;;;;;;;;21.10;99.90;;;;;;5092241;28;19919;-77
2024/01/25 07:48:31;;;;;;;;;;;21.20;99.90;;;;;;5092107;28;19908;-74
2024/01/25 07:50:57;;;;;;;;;;;21.00;99.90;;;;;;5091649;28;19942;-79
2024/01/25 07:53:23;;;;;;;;;;;21.60;99.90;;;;;;5091587;28;19912;-77
2024/01/25 07:55:48;;;;;;;;;;;21.80;99.90;;;;;;5092010;28;20010;-77
2024/01/25 07:58:15;;;;;;;;;;;21.60;99.90;;;;;;5091893;28;19912;-78
2024/01/25 08:00:41;;;;;;;;;;;21.80;99.90;;;;;;5091722;28;19920;-78
2024/01/25 08:03:08;;;;;;;;;;;21.60;99.90;;;;;;5091804;28;19954;-77
2024/01/25 08:05:34;;;;;;;;;;;21.20;99.90;;;;;;5091389;28;19915;-74
2024/01/25 08:08:00;;;;;;;;;;;21.00;99.90;;;;;;5091961;28;19996;-78
2024/01/25 08:10:26;;;;;;;;;;;20.80;99.90;;;;;;5091555;28;20254;-76
2024/01/25 08:12:53;;;;;;;;;;;20.00;99.90;;;;;;5091701;28;19908;-77
2024/01/25 08:15:19;;;;;;;;;;;19.60;99.90;;;;;;5091680;28;20007;-77
2024/01/25 08:17:45;;;;;;;;;;;19.50;99.90;;;;;;5090296;28;19964;-77
2024/01/25 08:20:13;;;;;;;;;;;19.30;99.90;;;;;;5091634;28;19988;-76
2024/01/25 08:22:40;;;;;;;;;;;18.70;99.90;;;;;;5092097;28;20272;-75
2024/01/25 08:25:06;;;;;;;;;;;18.70;99.90;;;;;;5091648;28;20311;-77
2024/01/25 08:27:32;;;;;;;;;;;18.70;99.90;;;;;;5091638;28;20237;-78
2024/01/25 08:29:58;;;;;;;;;;;18.30;99.90;;;;;;5093225;28;19919;-76
2024/01/25 08:32:28;;;;;;;;;;;17.90;99.90;;;;;;5095592;28;20395;-76
2024/01/25 08:34:54;;;;;;;;;;;17.80;99.90;;;;;;5093910;28;20375;-75
2024/01/25 08:37:20;;;;;;;;;;;17.50;99.90;;;;;;5095264;28;19953;-76
2024/01/25 08:39:50;;;;;;;;;;;17.20;99.90;;;;;;5094880;28;20330;-76
2024/01/25 08:42:20;;;;;;;;;;;17.30;99.90;;;;;;5095222;28;19997;-76
2024/01/25 08:44:49;;;;;;;;;;;17.50;99.90;;;;;;5095103;28;19908;-78
2024/01/25 08:47:18;;;;;;;;;;;17.70;99.90;;;;;;5095099;28;20434;-76
2024/01/25 08:49:44;;;;;;;;;;;18.00;99.90;;;;;;5099197;28;19912;-77
2024/01/25 08:52:10;;;;;;;;;;;18.20;99.90;;;;;;5095340;28;20276;-76
2024/01/25 08:54:37;;;;;;;;;;;18.30;99.90;;;;;;5093388;28;19912;-78
2024/01/25 08:57:03;;;;;;;;;;;18.30;99.90;;;;;;5094452;28;19908;-77
2024/01/25 08:59:32;;;;;;;;;;;18.30;99.90;;;;;;5094438;28;19909;-77
2024/01/25 09:01:58;;;;;;;;;;;18.50;99.90;;;;;;5094776;28;19983;-77
2024/01/25 09:04:24;;;;;;;;;;;18.60;99.90;;;;;;5094201;28;19998;-77
2024/01/25 09:06:50;;;;;;;;;;;18.60;99.90;;;;;;5093129;28;20380;-78
2024/01/25 09:09:16;;;;;;;;;;;18.90;99.90;;;;;;5094506;28;19908;-77
2024/01/25 09:11:41;;;;;;;;;;;18.70;99.90;;;;;;5092688;28;19923;-78
2024/01/25 09:14:07;;;;;;;;;;;18.80;99.90;;;;;;5094173;28;19909;-76
2024/01/25 09:16:37;;;;;;;;;;;18.70;99.90;;;;;;5093678;28;20348;-75
2024/01/25 09:19:03;;;;;;;;;;;18.60;99.90;;;;;;5094040;28;20325;-75
2024/01/25 09:21:28;;;;;;;;;;;18.70;99.90;;;;;;5093779;28;19908;-75
2024/01/25 09:23:54;;;;;;;;;;;18.40;99.90;;;;;;5092280;28;19908;-78
2024/01/25 09:26:20;;;;;;;;;;;18.40;99.90;;;;;;5093988;28;20280;-76
2024/01/25 09:28:46;;;;;;;;;;;18.50;99.90;;;;;;5092738;28;19908;-75
2024/01/25 09:31:11;;;;;;;;;;;18.60;99.90;;;;;;5094299;28;19952;-77
2024/01/25 09:33:37;;;;;;;;;;;18.50;99.90;;;;;;5093823;28;20379;-76
2024/01/25 09:36:03;;;;;;;;;;;18.60;99.90;;;;;;5092693;28;19916;-77
2024/01/25 09:38:29;;;;;;;;;;;18.50;99.90;;;;;;5093776;28;19915;-78
2024/01/25 09:40:56;;;;;;;;;;;18.30;99.90;;;;;;5092001;28;20046;-77
2024/01/25 09:43:22;;;;;;;;;;;18.40;99.90;;;;;;5092178;28;20419;-75
2024/01/25 09:45:50;;;;;;;;;;;18.40;99.90;;;;;;5091844;28;19970;-75
2024/01/25 09:48:17;;;;;;;;;;;18.30;99.90;;;;;;5093027;28;19908;-79
2024/01/25 09:50:43;;;;;;;;;;;17.90;99.90;;;;;;5093273;28;19916;-78
2024/01/25 09:53:10;;;;;;;;;;;17.60;99.90;;;;;;5094149;28;19967;-78
2024/01/25 09:55:38;;;;;;;;;;;17.70;99.90;;;;;;5094108;28;19908;-78
2024/01/25 09:58:07;;;;;;;;;;;17.70;99.90;;;;;;5092234;28;19923;-78
2024/01/25 10:00:33;;;;;;;;;;;17.60;99.90;;;;;;5093746;28;19908;-78
2024/01/25 10:02:59;;;;;;;;;;;17.60;99.90;;;;;;5093806;28;19915;-75
2024/01/25 10:05:25;;;;;;;;;;;17.70;99.90;;;;;;5093505;28;19908;-77
2024/01/25 10:07:50;;;;;;;;;;;18.00;99.90;;;;;;5093605;28;19920;-77
2024/01/25 10:10:16;;;;;;;;;;;18.20;99.90;;;;;;5093253;28;19987;-76
2024/01/25 10:12:43;;;;;;;;;;;18.30;99.90;;;;;;5093562;28;19915;-76
2024/01/25 10:15:10;;;;;;;;;;;18.20;99.90;;;;;;5092181;28;20279;-76
2024/01/25 10:17:36;;;;;;;;;;;18.40;99.90;;;;;;5093259;28;19919;-78
2024/01/25 10:20:07;;;;;;;;;;;18.60;99.90;;;;;;5093022;28;19908;-77
2024/01/25 10:22:32;;;;;;;;;;;18.80;99.90;;;;;;5093573;28;20268;-77
2024/01/25 10:24:58;;;;;;;;;;;19.10;99.90;;;;;;5093200;28;19908;-77
2024/01/25 10:27:24;;;;;;;;;;;18.90;99.90;;;;;;5091511;28;19912;-78
2024/01/25 10:29:51;;;;;;;;;;;19.00;99.90;;;;;;5091691;28;19949;-79
2024/01/25 10:32:17;;;;;;;;;;;19.30;99.90;;;;;;5092748;28;19915;-77
2024/01/25 10:34:45;;;;;;;;;;;19.40;99.90;;;;;;5092526;28;19908;-77
2024/01/25 10:37:13;;;;;;;;;;;19.40;99.90;;;;;;5092997;28;19927;-77
2024/01/25 10:39:40;;;;;;;;;;;19.50;99.90;;;;;;5092484;28;20013;-77
2024/01/25 10:42:06;;;;;;;;;;;19.60;99.90;;;;;;5092588;28;20052;-77
2024/01/25 10:44:31;;;;;;;;;;;19.80;99.90;;;;;;5092939;28;19957;-77
2024/01/25 10:46:58;;;;;;;;;;;19.80;99.90;;;;;;5092662;28;19908;-74
2024/01/25 10:49:24;;;;;;;;;;;19.70;99.90;;;;;;5092961;28;20003;-79
2024/01/25 10:51:50;;;;;;;;;;;19.70;99.90;;;;;;5092006;28;20006;-79
2024/01/25 10:54:16;;;;;;;;;;;19.80;99.90;;;;;;5091526;28;19908;-79
2024/01/25 10:56:42;;;;;;;;;;;19.80;99.90;;;;;;5092947;28;20003;-80
2024/01/25 10:59:10;;;;;;;;;;;19.90;99.90;;;;;;5091266;28;19982;-78
2024/01/25 11:01:36;;;;;;;;;;;20.00;99.90;;;;;;5092604;28;19912;-78
2024/01/25 11:04:02;;;;;;;;;;;19.80;99.90;;;;;;5092556;28;20086;-78
2024/01/25 11:06:28;;;;;;;;;;;19.60;99.90;;;;;;5090253;28;19936;-79
2024/01/25 11:09:07;;;;;;;;;;;19.60;99.90;;;;;;5090799;28;19919;-76
2024/01/25 11:11:37;;;;;;;;;;;19.30;99.90;;;;;;5091498;28;20298;-81
2024/01/25 11:14:03;;;;;;;;;;;19.30;99.90;;;;;;5092570;28;20252;-82
2024/01/25 11:16:29;;;;;;;;;;;19.30;99.90;;;;;;5092659;28;20404;-82
2024/01/25 11:19:15;;;;;;;;;;;19.50;99.90;;;;;;5092506;28;20267;-80
2024/01/25 11:21:48;;;;;;;;;;;19.40;99.90;;;;;;5090906;28;19908;-81
2024/01/25 11:24:14;;;;;;;;;;;19.30;99.90;;;;;;5092637;28;19908;-82
2024/01/25 11:26:44;;;;;;;;;;;19.40;99.90;;;;;;5092374;28;20391;-82
2024/01/25 11:29:22;;;;;;;;;;;19.60;99.90;;;;;;5092342;28;19908;-82
2024/01/25 11:31:52;;;;;;;;;;;19.60;99.90;;;;;;5093953;28;19916;-79
2024/01/25 11:34:18;;;;;;;;;;;19.70;99.90;;;;;;5095794;28;19915;-77
2024/01/25 11:36:44;;;;;;;;;;;19.90;99.90;;;;;;5093408;28;19908;-79
2024/01/25 11:39:11;;;;;;;;;;;20.00;99.90;;;;;;5093810;28;19908;-81
2024/01/25 11:41:37;;;;;;;;;;;20.10;99.90;;;;;;5093212;28;19915;-81
2024/01/25 11:44:06;;;;;;;;;;;20.10;99.90;;;;;;5092711;28;19908;-80
2024/01/25 11:46:32;;;;;;;;;;;20.10;99.90;;;;;;5092687;28;20359;-81
2024/01/25 11:48:58;;;;;;;;;;;20.00;99.90;;;;;;5090671;28;19947;-81
2024/01/25 11:51:24;;;;;;;;;;;20.00;99.90;;;;;;5091613;28;20249;-79
2024/01/25 11:53:49;;;;;;;;;;;19.60;99.90;;;;;;5092285;28;19908;-79
2024/01/25 11:56:19;;;;;;;;;;;19.50;99.90;;;;;;5090470;28;20391;-80
2024/01/25 11:58:45;;;;;;;;;;;19.70;99.90;;;;;;5090804;28;19915;-78
2024/01/25 12:01:11;;;;;;;;;;;19.90;99.90;;;;;;5093013;28;19999;-79
2024/01/25 12:03:37;;;;;;;;;;;20.00;99.90;;;;;;5092123;28;19908;-78
2024/01/25 12:06:05;;;;;;;;;;;20.20;99.90;;;;;;5093743;28;19923;-78
2024/01/25 12:08:34;;;;;;;;;;;20.30;99.90;;;;;;5095139;28;19957;-78
2024/01/25 12:11:06;;;;;;;;;;;20.30;99.90;;;;;;5095024;28;20023;-79
2024/01/25 12:13:33;;;;;;;;;;;20.30;99.90;;;;;;5095036;28;19952;-79
2024/01/25 12:16:00;;;;;;;;;;;20.30;99.90;;;;;;5093706;28;19930;-73
2024/01/25 12:18:26;;;;;;;;;;;20.20;99.90;;;;;;5095681;28;20026;-79
2024/01/25 12:20:52;;;;;;;;;;;20.30;99.90;;;;;;5095351;28;20291;-79
2024/01/25 12:23:30;;;;;;;;;;;20.50;99.90;;;;;;5096746;28;19908;-78
2024/01/25 12:25:55;;;;;;;;;;;20.40;99.90;;;;;;5096108;28;20000;-79
2024/01/25 12:28:21;;;;;;;;;;;20.30;99.90;;;;;;5094234;28;19908;-73
2024/01/25 12:30:47;;;;;;;;;;;20.40;99.90;;;;;;5094115;28;19938;-75
2024/01/25 12:33:13;;;;;;;;;;;20.50;99.90;;;;;;5095713;28;20372;-76
2024/01/25 12:35:39;;;;;;;;;;;20.70;99.90;;;;;;5095508;28;19970;-75
2024/01/25 12:38:05;;;;;;;;;;;20.70;99.90;;;;;;5094913;28;20372;-74
2024/01/25 12:40:31;;;;;;;;;;;20.70;99.90;;;;;;5095205;28;19937;-81
2024/01/25 12:42:56;;;;;;;;;;;20.70;99.90;;;;;;5095383;28;20056;-79
2024/01/25 12:45:22;;;;;;;;;;;20.90;99.90;;;;;;5095027;28;20265;-80
2024/01/25 12:47:48;;;;;;;;;;;21.00;99.90;;;;;;5095172;28;20000;-79
2024/01/25 12:50:14;;;;;;;;;;;21.00;99.90;;;;;;5092969;28;19924;-80
2024/01/25 12:52:40;;;;;;;;;;;21.00;99.90;;;;;;5094511;28;19909;-79
2024/01/25 12:55:06;;;;;;;;;;;20.90;99.90;;;;;;5095182;28;20317;-78
2024/01/25 12:57:32;;;;;;;;;;;21.10;99.90;;;;;;5093503;28;19908;-80
2024/01/25 12:59:59;;;;;;;;;;;21.10;99.90;;;;;;5094513;28;19908;-76
2024/01/25 13:02:25;;;;;;;;;;;21.10;99.90;;;;;;5095728;28;20026;-79
2024/01/25 13:04:50;;;;;;;;;;;20.70;99.90;;;;;;5097168;28;19931;-78
2024/01/25 13:07:17;;;;;;;;;;;20.70;99.90;;;;;;5096314;28;19920;-79
2024/01/25 13:09:42;;;;;;;;;;;20.80;99.90;;;;;;5094981;28;19912;-79
2024/01/25 13:12:08;;;;;;;;;;;20.90;99.90;;;;;;5094761;28;19916;-79
2024/01/25 13:14:34;;;;;;;;;;;21.00;99.90;;;;;;5092886;28;19912;-79
2024/01/25 13:17:00;;;;;;;;;;;21.00;99.90;;;;;;5093384;28;20410;-78
2024/01/25 13:19:26;;;;;;;;;;;21.00;99.90;;;;;;5095153;28;19953;-80
2024/01/25 13:21:52;;;;;;;;;;;21.00;99.90;;;;;;5095140;28;19909;-83
2024/01/25 13:24:18;;;;;;;;;;;21.00;99.90;;;;;;5093914;28;19961;-83
2024/01/25 13:26:44;;;;;;;;;;;21.10;99.90;;;;;;5093983;28;20248;-82
2024/01/25 13:29:12;;;;;;;;;;;21.00;99.90;;;;;;5093771;28;20257;-83
2024/01/25 13:31:39;;;;;;;;;;;20.90;99.90;;;;;;5095077;28;20011;-83
2024/01/25 13:34:05;;;;;;;;;;;21.10;99.90;;;;;;5095116;28;19934;-83
2024/01/25 13:36:31;;;;;;;;;;;21.10;99.90;;;;;;5093637;28;20353;-83
2024/01/25 13:38:56;;;;;;;;;;;21.00;99.90;;;;;;5094981;28;19915;-81
2024/01/25 13:41:22;;;;;;;;;;;21.00;99.90;;;;;;5095036;28;19908;-80
2024/01/25 13:43:48;;;;;;;;;;;20.70;99.90;;;;;;5093373;28;19908;-82
2024/01/25 13:46:14;;;;;;;;;;;20.70;99.90;;;;;;5093224;28;19908;-78
2024/01/25 13:48:40;;;;;;;;;;;20.60;99.90;;;;;;5093363;28;19969;-78
2024/01/25 13:51:05;;;;;;;;;;;20.60;99.90;;;;;;5093173;28;19923;-79
2024/01/25 13:53:31;;;;;;;;;;;20.70;99.90;;;;;;5092950;28;19998;-78
2024/01/25 13:55:57;;;;;;;;;;;20.80;99.90;;;;;;5094171;28;19915;-78
2024/01/25 13:58:23;;;;;;;;;;;20.90;99.90;;;;;;5092839;28;19974;-78
2024/01/25 14:00:49;;;;;;;;;;;20.90;99.90;;;;;;5093238;28;19908;-78
2024/01/25 14:03:19;;;;;;;;;;;21.00;99.90;;;;;;5094011;28;20381;-78
2024/01/25 14:05:52;;;;;;;;;;;20.80;99.90;;;;;;5093522;28;19947;-78
2024/01/25 14:08:18;;;;;;;;;;;20.50;99.90;;;;;;5094189;28;19912;-78
2024/01/25 14:10:44;;;;;;;;;;;20.40;99.90;;;;;;5094120;28;19923;-78
2024/01/25 14:13:10;;;;;;;;;;;20.40;99.90;;;;;;5093140;28;20386;-79